Pagina principale
METAR-TAF:

METAR-TAF

Aeroporti :

Kermanshah, Iran

latitudine: 34-16N, longitudine: 047-07E, altezza: 1320 m

Osservazione

Il bollettino è stato emesso 26 minuti fa, alle 13:30 UTC
Vento 16 kt da sud-ovest
Temperature 32°C
Umidità 5%
Pressione 1019 hPa
Visibilità 10 km o più
Poco nuvoloso ad un'altezza di 4500 ft
Nubi sparse ad un'altezza di 13000 ft

METAR: OICC 261330Z 23016KT 9999 FEW045 SCT130 32/M12 Q1019 A3010

Ora: 18:26 (13:56 UTC)


TAF: mancante

Osservazioni e previsioni meteorologiche di più di 4000 aeroporti (messaggi METAR e TAF).

Le stazioni disponibili sono rappresentate dai dischi gialli e rossi sulla carta.

Puntare il mouse per vedere il nome della stazione.

Clicca sopra per visualizzare le osservazioni e previsioni meteorologiche.

Per cambiare la mappa : fare clic sui pulsanti verdi con una croce nera per ingrandire, il pulsante verde con un trattino per diminuire, o sulla freccia verde per le mappe adiacenti.


METAR-TAF: